Algeciras Jet — 5BLY2 — position and weather

sailwx.info

Track history (hours):
 
Tides and Currents Weather Stations Pressure Air Temp Water Temp Dewpoint Dewpoint Depression Visibility Wind Speed Wind Dir Waves Ship Positions

Algeciras Jet

Last reported at 2017-Sep-20 17:18 UTC. Time now 2017-Sep-23 05:56 UTC.
Position N 35°58' W 005°39'.

Length 60 m; draft 2.2 m.

Type: High speed craft. MMSI: 209936000.

Date/timePositionNaut miles runAvg speedWind from/ knotsBaromVisibWave heightAir tempDewpointWater temp
2017-Sep-20 17:18N 35°58' W 005°39'3 2.5
2017-Sep-20 16:03N 35°60' W 005°36'3 1.2
2017-Sep-20 13:18N 35°58' W 005°39'3 3.4
2017-Sep-20 12:19N 36°00' W 005°36'720.0
2017-Sep-20 11:57N 35°55' W 005°43'4 0.2
2017-Sep-19 17:23N 35°59' W 005°40'4 3.4
2017-Sep-19 16:19N 36°01' W 005°36'3 1.1
2017-Sep-19 13:19N 35°58' W 005°39'1 0.8
2017-Sep-19 12:01N 35°59' W 005°38'2 0.5
2017-Sep-19 08:06N 35°60' W 005°36'625.3
2017-Sep-19 07:50N 35°55' W 005°42'6 0.3
2017-Sep-18 12:15N 36°00' W 005°36'3 0.2
2017-Sep-17 21:16N 35°59' W 005°40'1 1.0
2017-Sep-17 19:54N 35°58' W 005°38'2 0.6
2017-Sep-17 16:15N 36°00' W 005°36'625.4
2017-Sep-17 16:00N 35°55' W 005°42'3 1.4
2017-Sep-17 13:36N 35°55' W 005°46'620.4
2017-Sep-17 13:18N 35°58' W 005°39'3 3.7
2017-Sep-17 12:24N 36°01' W 005°36'3 1.2
2017-Sep-17 09:42N 35°59' W 005°40'1 0.9
2017-Sep-17 08:16N 35°59' W 005°38'2 0.2
2017-Sep-16 21:20N 35°59' W 005°40'4 9.0
2017-Sep-16 20:54N 36°01' W 005°36'0 0.0
2017-Sep-16 20:26N 36°01' W 005°36'0 0.1
2017-Sep-16 20:01N 36°01' W 005°36'1019.6
2017-Sep-16 19:30N 35°53' W 005°45'7 3.3
2017-Sep-16 17:28N 35°58' W 005°40'3 3.2
2017-Sep-16 16:27N 36°00' W 005°36'3 0.9
2017-Sep-16 13:16N 35°58' W 005°39'3 2.9
2017-Sep-16 12:14N 36°00' W 005°36'722.9
2017-Sep-16 11:57N 35°56' W 005°42'4 1.5
2017-Sep-16 09:27N 35°58' W 005°39'1 0.7
2017-Sep-16 08:17N 35°59' W 005°38'11 1.1
2017-Sep-15 21:56N 35°51' W 005°47'1022.5
2017-Sep-15 21:30N 35°58' W 005°40'3 6.7
2017-Sep-15 20:59N 36°01' W 005°36'0 0.0
2017-Sep-15 20:28N 36°01' W 005°36'613.0
2017-Sep-15 19:59N 35°57' W 005°42'4 1.5
2017-Sep-15 17:39N 35°56' W 005°46'723.5
2017-Sep-15 17:21N 35°58' W 005°39'3 2.7
2017-Sep-15 16:21N 36°00' W 005°36'924.5
2017-Sep-15 15:59N 35°54' W 005°45'6 2.2
2017-Sep-15 13:17N 35°59' W 005°40'1 1.0
2017-Sep-15 12:02N 35°58' W 005°38'1 0.4
2017-Sep-15 09:23N 35°59' W 005°39'1 0.8
2017-Sep-15 08:09N 35°58' W 005°38'1 0.0
2017-Sep-13 21:20N 35°58' W 005°39'4 2.8
2017-Sep-13 19:49N 35°56' W 005°43'9 4.8
2017-Sep-13 17:54N 35°47' W 005°48'7 3.5
2017-Sep-13 15:56N 35°53' W 005°43'7 0.8
2017-Sep-13 08:08N 35°58' W 005°38'724.2
2017-Sep-13 07:51N 35°53' W 005°44'7 0.6
2017-Sep-12 21:16N 35°59' W 005°39'3 2.9
2017-Sep-12 20:09N 36°01' W 005°36'1 5.1
2017-Sep-12 20:00N 35°60' W 005°36'4 1.4
2017-Sep-12 17:22N 35°59' W 005°40'410.6
2017-Sep-12 17:00N 36°01' W 005°36'0 0.0
2017-Sep-12 16:30N 36°01' W 005°36'915.8
2017-Sep-12 15:57N 35°54' W 005°44'5 2.0
2017-Sep-12 13:21N 35°58' W 005°40'410.5
2017-Sep-12 13:00N 36°01' W 005°36'0 0.0
2017-Sep-12 12:27N 36°01' W 005°36'4 1.2
2017-Sep-12 09:28N 35°58' W 005°40'4 6.8
2017-Sep-12 08:56N 36°01' W 005°36'1 1.9
2017-Sep-12 08:29N 35°60' W 005°36'12 1.1
2017-Sep-11 21:41N 35°51' W 005°46'526.7
2017-Sep-11 21:30N 35°56' W 005°45'917.3
2017-Sep-11 21:00N 36°01' W 005°36'0 0.0
2017-Sep-11 20:30N 36°01' W 005°36'714.8
2017-Sep-11 20:01N 35°55' W 005°42'4 1.7
2017-Sep-11 17:40N 35°58' W 005°40'418.0
2017-Sep-11 17:29N 36°00' W 005°36'0 0.3
2017-Sep-11 17:00N 36°01' W 005°36'0 0.0
2017-Sep-11 16:31N 36°01' W 005°36'4 1.2
2017-Sep-11 13:19N 35°58' W 005°40'4 4.4
2017-Sep-11 12:29N 36°01' W 005°36'917.3
2017-Sep-11 11:59N 35°54' W 005°43'5 2.1
2017-Sep-11 09:24N 35°58' W 005°39'3 3.8
2017-Sep-11 08:30N 36°01' W 005°36'10 0.9
2017-Sep-10 21:37N 35°54' W 005°46'424.4
2017-Sep-10 21:27N 35°57' W 005°44'713.8
2017-Sep-10 20:57N 36°01' W 005°36'0 0.0
2017-Sep-10 20:27N 36°01' W 005°36'0 0.1
2017-Sep-10 20:00N 36°01' W 005°36'918.9
2017-Sep-10 19:30N 35°53' W 005°44'  
Track history (hours):
 
Tides and Currents Weather Stations Pressure Air Temp Water Temp Dewpoint Dewpoint Depression Visibility Wind Speed Wind Dir Waves Ship Positions

Algeciras Jet

Last reported at 2017-Sep-20 17:18 UTC. Time now 2017-Sep-23 05:56 UTC.
Position N 35°58' W 005°39'.

Length 60 m; draft 2.2 m.

Type: High speed craft. MMSI: 209936000.

Date/timePositionNaut miles runAvg speedWind from/ knotsBaromVisibWave heightAir tempDewpointWater temp
2017-Sep-20 17:18N 35°58' W 005°39'3 2.5
2017-Sep-20 16:03N 35°60' W 005°36'3 1.2
2017-Sep-20 13:18N 35°58' W 005°39'3 3.4
2017-Sep-20 12:19N 36°00' W 005°36'720.0
2017-Sep-20 11:57N 35°55' W 005°43'4 0.2
2017-Sep-19 17:23N 35°59' W 005°40'4 3.4
2017-Sep-19 16:19N 36°01' W 005°36'3 1.1
2017-Sep-19 13:19N 35°58' W 005°39'1 0.8
2017-Sep-19 12:01N 35°59' W 005°38'2 0.5
2017-Sep-19 08:06N 35°60' W 005°36'625.3
2017-Sep-19 07:50N 35°55' W 005°42'6 0.3
2017-Sep-18 12:15N 36°00' W 005°36'3 0.2
2017-Sep-17 21:16N 35°59' W 005°40'1 1.0
2017-Sep-17 19:54N 35°58' W 005°38'2 0.6
2017-Sep-17 16:15N 36°00' W 005°36'625.4
2017-Sep-17 16:00N 35°55' W 005°42'3 1.4
2017-Sep-17 13:36N 35°55' W 005°46'620.4
2017-Sep-17 13:18N 35°58' W 005°39'3 3.7
2017-Sep-17 12:24N 36°01' W 005°36'3 1.2
2017-Sep-17 09:42N 35°59' W 005°40'1 0.9
2017-Sep-17 08:16N 35°59' W 005°38'2 0.2
2017-Sep-16 21:20N 35°59' W 005°40'4 9.0
2017-Sep-16 20:54N 36°01' W 005°36'0 0.0
2017-Sep-16 20:26N 36°01' W 005°36'0 0.1
2017-Sep-16 20:01N 36°01' W 005°36'1019.6
2017-Sep-16 19:30N 35°53' W 005°45'7 3.3
2017-Sep-16 17:28N 35°58' W 005°40'3 3.2
2017-Sep-16 16:27N 36°00' W 005°36'3 0.9
2017-Sep-16 13:16N 35°58' W 005°39'3 2.9
2017-Sep-16 12:14N 36°00' W 005°36'722.9
2017-Sep-16 11:57N 35°56' W 005°42'4 1.5
2017-Sep-16 09:27N 35°58' W 005°39'1 0.7
2017-Sep-16 08:17N 35°59' W 005°38'11 1.1
2017-Sep-15 21:56N 35°51' W 005°47'1022.5
2017-Sep-15 21:30N 35°58' W 005°40'3 6.7
2017-Sep-15 20:59N 36°01' W 005°36'0 0.0
2017-Sep-15 20:28N 36°01' W 005°36'613.0
2017-Sep-15 19:59N 35°57' W 005°42'4 1.5
2017-Sep-15 17:39N 35°56' W 005°46'723.5
2017-Sep-15 17:21N 35°58' W 005°39'3 2.7
2017-Sep-15 16:21N 36°00' W 005°36'924.5
2017-Sep-15 15:59N 35°54' W 005°45'6 2.2
2017-Sep-15 13:17N 35°59' W 005°40'1 1.0
2017-Sep-15 12:02N 35°58' W 005°38'1 0.4
2017-Sep-15 09:23N 35°59' W 005°39'1 0.8
2017-Sep-15 08:09N 35°58' W 005°38'1 0.0
2017-Sep-13 21:20N 35°58' W 005°39'4 2.8
2017-Sep-13 19:49N 35°56' W 005°43'9 4.8
2017-Sep-13 17:54N 35°47' W 005°48'7 3.5
2017-Sep-13 15:56N 35°53' W 005°43'7 0.8
2017-Sep-13 08:08N 35°58' W 005°38'724.2
2017-Sep-13 07:51N 35°53' W 005°44'7 0.6
2017-Sep-12 21:16N 35°59' W 005°39'3 2.9
2017-Sep-12 20:09N 36°01' W 005°36'1 5.1
2017-Sep-12 20:00N 35°60' W 005°36'4 1.4
2017-Sep-12 17:22N 35°59' W 005°40'410.6
2017-Sep-12 17:00N 36°01' W 005°36'0 0.0
2017-Sep-12 16:30N 36°01' W 005°36'915.8
2017-Sep-12 15:57N 35°54' W 005°44'5 2.0
2017-Sep-12 13:21N 35°58' W 005°40'410.5
2017-Sep-12 13:00N 36°01' W 005°36'0 0.0
2017-Sep-12 12:27N 36°01' W 005°36'4 1.2
2017-Sep-12 09:28N 35°58' W 005°40'4 6.8
2017-Sep-12 08:56N 36°01' W 005°36'1 1.9
2017-Sep-12 08:29N 35°60' W 005°36'12 1.1
2017-Sep-11 21:41N 35°51' W 005°46'526.7
2017-Sep-11 21:30N 35°56' W 005°45'917.3
2017-Sep-11 21:00N 36°01' W 005°36'0 0.0
2017-Sep-11 20:30N 36°01' W 005°36'714.8
2017-Sep-11 20:01N 35°55' W 005°42'4 1.7
2017-Sep-11 17:40N 35°58' W 005°40'418.0
2017-Sep-11 17:29N 36°00' W 005°36'0 0.3
2017-Sep-11 17:00N 36°01' W 005°36'0 0.0
2017-Sep-11 16:31N 36°01' W 005°36'4 1.2
2017-Sep-11 13:19N 35°58' W 005°40'4 4.4
2017-Sep-11 12:29N 36°01' W 005°36'917.3
2017-Sep-11 11:59N 35°54' W 005°43'5 2.1
2017-Sep-11 09:24N 35°58' W 005°39'3 3.8
2017-Sep-11 08:30N 36°01' W 005°36'10 0.9
2017-Sep-10 21:37N 35°54' W 005°46'424.4
2017-Sep-10 21:27N 35°57' W 005°44'713.8
2017-Sep-10 20:57N 36°01' W 005°36'0 0.0
2017-Sep-10 20:27N 36°01' W 005°36'0 0.1
2017-Sep-10 20:00N 36°01' W 005°36'918.9
2017-Sep-10 19:30N 35°53' W 005°44'  

Dump ship's entire track history